Time,TemperatureF,DewpointF,PressureIn,WindDirection,WindDirectionDegrees,WindSpeedMPH,WindSpeedGustMPH,Humidity,HourlyPrecipIn,Conditions,Clouds,dailyrainin,SoftwareType,DateUTC
2013-06-10 00:06:00,57.5,52.0,30.14,NW,319,0.0,0.0,81,0.00,,,0.00,weatherlink.com 1.10,2013-06-10 04:06:00,
2013-06-10 00:21:00,56.7,52.0,30.13,NW,319,0.0,0.0,83,0.00,,,0.00,weatherlink.com 1.10,2013-06-10 04:21:00,
2013-06-10 00:36:00,55.9,52.0,30.14,NW,319,0.0,0.0,86,0.00,,,0.00,weatherlink.com 1.10,2013-06-10 04:36:00,
2013-06-10 00:51:00,55.1,51.0,30.13,NW,319,0.0,0.0,87,0.00,,,0.00,weatherlink.com 1.10,2013-06-10 04:51:00,
2013-06-10 01:06:00,54.6,51.0,30.14,NW,319,0.0,0.0,88,0.00,,,0.00,weatherlink.com 1.10,2013-06-10 05:06:00,
2013-06-10 01:21:00,53.9,51.0,30.14,NW,319,0.0,0.0,89,0.00,,,0.00,weatherlink.com 1.10,2013-06-10 05:21:00,
2013-06-10 01:36:00,53.4,51.0,30.14,NNW,328,0.0,1.0,91,0.00,,,0.00,weatherlink.com 1.10,2013-06-10 05:36:00,
2013-06-10 01:51:00,53.2,51.0,30.15,NNW,328,0.0,0.0,91,0.00,,,0.00,weatherlink.com 1.10,2013-06-10 05:51:00,
2013-06-10 02:21:00,52.8,51.0,30.14,NNW,328,0.0,0.0,93,0.00,,,0.00,weatherlink.com 1.10,2013-06-10 06:21:00,
2013-06-10 02:36:00,52.7,51.0,30.14,NNW,328,0.0,0.0,93,0.00,,,0.00,weatherlink.com 1.10,2013-06-10 06:36:00,
2013-06-10 02:51:00,52.5,51.0,30.15,NNW,328,0.0,0.0,93,0.00,,,0.00,weatherlink.com 1.10,2013-06-10 06:51:00,
2013-06-10 03:06:00,52.3,50.0,30.14,NNW,328,0.0,0.0,93,0.00,,,0.00,weatherlink.com 1.10,2013-06-10 07:06:00,
2013-06-10 03:21:00,51.9,50.0,30.14,NNW,328,0.0,0.0,93,0.00,,,0.00,weatherlink.com 1.10,2013-06-10 07:21:00,
2013-06-10 03:36:00,51.5,50.0,30.13,NNW,328,0.0,0.0,94,0.00,,,0.00,weatherlink.com 1.10,2013-06-10 07:36:00,
2013-06-10 03:51:00,51.5,50.0,30.14,NNW,328,0.0,0.0,94,0.00,,,0.00,weatherlink.com 1.10,2013-06-10 07:51:00,
2013-06-10 04:06:00,51.1,50.0,30.15,NNW,328,0.0,0.0,94,0.00,,,0.00,weatherlink.com 1.10,2013-06-10 08:06:00,
2013-06-10 04:21:00,50.8,49.0,30.15,NNW,328,0.0,0.0,94,0.00,,,0.00,weatherlink.com 1.10,2013-06-10 08:21:00,
2013-06-10 04:51:00,50.0,48.0,30.16,NNW,328,0.0,0.0,94,0.00,,,0.00,weatherlink.com 1.10,2013-06-10 08:51:00,
2013-06-10 05:06:00,49.7,48.0,30.16,NNW,328,0.0,0.0,94,0.00,,,0.00,weatherlink.com 1.10,2013-06-10 09:06:00,
2013-06-10 05:21:00,49.7,48.0,30.16,NNW,328,0.0,0.0,95,0.00,,,0.00,weatherlink.com 1.10,2013-06-10 09:21:00,
2013-06-10 05:36:00,49.5,48.0,30.17,NNW,328,0.0,0.0,95,0.00,,,0.00,weatherlink.com 1.10,2013-06-10 09:36:00,
2013-06-10 05:51:00,49.7,49.0,30.17,NNW,328,0.0,0.0,96,0.00,,,0.00,weatherlink.com 1.10,2013-06-10 09:51:00,
2013-06-10 06:06:00,50.4,49.0,30.18,NNW,328,0.0,0.0,96,0.00,,,0.00,weatherlink.com 1.10,2013-06-10 10:06:00,
2013-06-10 06:22:00,51.0,50.0,30.18,NNW,331,1.0,1.0,96,0.00,,,0.00,weatherlink.com 1.10,2013-06-10 10:22:00,
2013-06-10 06:37:00,51.5,50.0,30.18,NW,318,0.0,0.0,96,0.00,,,0.00,weatherlink.com 1.10,2013-06-10 10:37:00,
2013-06-10 06:52:00,52.1,51.0,30.18,NW,318,0.0,0.0,95,0.00,,,0.00,weatherlink.com 1.10,2013-06-10 10:52:00,
2013-06-10 07:07:00,53.1,52.0,30.19,NW,318,0.0,0.0,95,0.00,,,0.00,weatherlink.com 1.10,2013-06-10 11:07:00,
2013-06-10 07:22:00,53.8,52.0,30.19,NW,318,0.0,0.0,93,0.00,,,0.00,weatherlink.com 1.10,2013-06-10 11:22:00,
2013-06-10 07:37:00,54.5,52.0,30.19,NW,318,0.0,0.0,92,0.00,,,0.00,weatherlink.com 1.10,2013-06-10 11:37:00,
2013-06-10 07:52:00,55.2,53.0,30.19,NW,318,0.0,0.0,92,0.00,,,0.00,weatherlink.com 1.10,2013-06-10 11:52:00,
2013-06-10 08:07:00,56.2,53.0,30.19,WNW,288,0.0,0.0,90,0.00,,,0.00,weatherlink.com 1.10,2013-06-10 12:07:00,
2013-06-10 08:22:00,57.1,54.0,30.19,WNW,288,0.0,0.0,89,0.00,,,0.00,weatherlink.com 1.10,2013-06-10 12:22:00,
2013-06-10 08:37:00,58.3,55.0,30.19,WNW,288,0.0,0.0,87,0.00,,,0.00,weatherlink.com 1.10,2013-06-10 12:37:00,
2013-06-10 08:52:00,59.9,55.0,30.18,WNW,288,0.0,0.0,84,0.00,,,0.00,weatherlink.com 1.10,2013-06-10 12:52:00,
2013-06-10 09:07:00,61.3,56.0,30.18,WNW,289,0.0,0.0,82,0.00,,,0.00,weatherlink.com 1.10,2013-06-10 13:07:00,
2013-06-10 09:22:00,62.6,56.0,30.18,North,5,2.0,3.0,79,0.00,,,0.00,weatherlink.com 1.10,2013-06-10 13:22:00,
2013-06-10 09:37:00,63.4,56.0,30.17,NE,38,0.0,3.0,77,0.00,,,0.00,weatherlink.com 1.10,2013-06-10 13:37:00,
2013-06-10 09:52:00,64.2,56.0,30.17,West,267,0.0,1.0,74,0.00,,,0.00,weatherlink.com 1.10,2013-06-10 13:52:00,
2013-06-10 10:07:00,65.1,56.0,30.17,NW,315,0.0,2.0,72,0.00,,,0.00,weatherlink.com 1.10,2013-06-10 14:07:00,
2013-06-10 10:22:00,65.9,56.0,30.17,NW,319,0.0,1.0,70,0.00,,,0.00,weatherlink.com 1.10,2013-06-10 14:22:00,
2013-06-10 10:37:00,66.4,56.0,30.17,SSW,213,0.0,0.0,69,0.00,,,0.00,weatherlink.com 1.10,2013-06-10 14:37:00,
2013-06-10 10:52:00,67.2,56.0,30.17,WSW,250,0.0,3.0,67,0.00,,,0.00,weatherlink.com 1.10,2013-06-10 14:52:00,
2013-06-10 11:07:00,67.6,55.0,30.17,SW,227,0.0,2.0,65,0.00,,,0.00,weatherlink.com 1.10,2013-06-10 15:07:00,
2013-06-10 11:22:00,68.1,57.0,30.17,SW,227,0.0,1.0,67,0.00,,,0.00,weatherlink.com 1.10,2013-06-10 15:22:00,
2013-06-10 11:37:00,68.7,57.0,30.17,SW,219,0.0,1.0,66,0.00,,,0.00,weatherlink.com 1.10,2013-06-10 15:37:00,
2013-06-10 11:52:00,69.3,56.0,30.16,SW,219,0.0,1.0,63,0.00,,,0.00,weatherlink.com 1.10,2013-06-10 15:52:00,
2013-06-10 12:07:00,69.4,57.0,30.16,SW,221,0.0,2.0,65,0.00,,,0.00,weatherlink.com 1.10,2013-06-10 16:07:00,
2013-06-10 12:22:00,69.6,57.0,30.15,SSW,205,0.0,2.0,65,0.00,,,0.00,weatherlink.com 1.10,2013-06-10 16:22:00,
2013-06-10 12:37:00,69.8,57.0,30.14,SW,215,0.0,2.0,63,0.00,,,0.00,weatherlink.com 1.10,2013-06-10 16:37:00,
2013-06-10 12:52:00,69.9,55.0,30.14,SW,228,1.0,2.0,60,0.00,,,0.00,weatherlink.com 1.10,2013-06-10 16:52:00,
2013-06-10 13:07:00,70.7,56.0,30.14,WSW,239,0.0,1.0,61,0.00,,,0.00,weatherlink.com 1.10,2013-06-10 17:07:00,
2013-06-10 13:22:00,70.6,57.0,30.14,WSW,244,0.0,3.0,62,0.00,,,0.00,weatherlink.com 1.10,2013-06-10 17:22:00,
2013-06-10 13:37:00,70.0,57.0,30.14,South,191,0.0,3.0,64,0.00,,,0.00,weatherlink.com 1.10,2013-06-10 17:37:00,
2013-06-10 13:53:00,69.8,56.0,30.14,SSW,205,0.0,1.0,62,0.00,,,0.00,weatherlink.com 1.10,2013-06-10 17:53:00,
2013-06-10 14:07:00,70.4,58.0,30.14,SW,221,0.0,1.0,65,0.00,,,0.00,weatherlink.com 1.10,2013-06-10 18:07:00,
2013-06-10 14:23:00,70.5,56.0,30.13,SW,225,0.0,3.0,60,0.00,,,0.00,weatherlink.com 1.10,2013-06-10 18:23:00,
2013-06-10 14:38:00,70.5,57.0,30.13,West,272,0.0,0.0,63,0.00,,,0.00,weatherlink.com 1.10,2013-06-10 18:38:00,
2013-06-10 14:53:00,70.3,57.0,30.12,SSW,196,0.0,3.0,63,0.00,,,0.00,weatherlink.com 1.10,2013-06-10 18:53:00,
2013-06-10 15:08:00,70.3,57.0,30.12,SSW,196,0.0,0.0,62,0.00,,,0.00,weatherlink.com 1.10,2013-06-10 19:08:00,
2013-06-10 15:23:00,69.7,56.0,30.12,SW,234,0.0,3.0,62,0.00,,,0.00,weatherlink.com 1.10,2013-06-10 19:23:00,
2013-06-10 15:38:00,69.4,57.0,30.11,SW,215,0.0,3.0,64,0.00,,,0.00,weatherlink.com 1.10,2013-06-10 19:38:00,
2013-06-10 15:53:00,69.2,57.0,30.11,SSW,207,0.0,2.0,65,0.00,,,0.00,weatherlink.com 1.10,2013-06-10 19:53:00,
2013-06-10 16:08:00,69.0,57.0,30.11,SSW,211,0.0,1.0,66,0.00,,,0.00,weatherlink.com 1.10,2013-06-10 20:08:00,
2013-06-10 16:23:00,68.6,57.0,30.11,SW,235,0.0,1.0,66,0.00,,,0.00,weatherlink.com 1.10,2013-06-10 20:23:00,
2013-06-10 16:38:00,68.2,57.0,30.10,SW,232,0.0,0.0,67,0.00,,,0.00,weatherlink.com 1.10,2013-06-10 20:38:00,
2013-06-10 16:53:00,68.0,57.0,30.10,SW,232,0.0,0.0,69,0.00,,,0.00,weatherlink.com 1.10,2013-06-10 20:53:00,
2013-06-10 17:08:00,67.7,57.0,30.09,SW,230,0.0,0.0,68,0.00,,,0.00,weatherlink.com 1.10,2013-06-10 21:08:00,
2013-06-10 17:23:00,67.4,57.0,30.09,SSW,212,0.0,1.0,70,0.00,,,0.00,weatherlink.com 1.10,2013-06-10 21:23:00,
2013-06-10 17:38:00,67.3,57.0,30.09,SSW,212,0.0,0.0,70,0.00,,,0.00,weatherlink.com 1.10,2013-06-10 21:38:00,
2013-06-10 17:53:00,67.0,57.0,30.08,SSW,212,0.0,0.0,71,0.00,,,0.00,weatherlink.com 1.10,2013-06-10 21:53:00,
2013-06-10 18:08:00,66.8,57.0,30.08,SSW,212,0.0,0.0,72,0.00,,,0.00,weatherlink.com 1.10,2013-06-10 22:08:00,
2013-06-10 18:23:00,66.5,58.0,30.08,SSW,212,0.0,0.0,73,0.00,,,0.00,weatherlink.com 1.10,2013-06-10 22:23:00,
2013-06-10 18:38:00,66.1,58.0,30.07,SSW,212,0.0,0.0,74,0.00,,,0.00,weatherlink.com 1.10,2013-06-10 22:38:00,
2013-06-10 18:53:00,65.6,58.0,30.07,SSW,212,0.0,0.0,75,0.00,,,0.00,weatherlink.com 1.10,2013-06-10 22:53:00,
2013-06-10 19:08:00,65.0,57.0,30.07,SSW,212,0.0,0.0,76,0.00,,,0.00,weatherlink.com 1.10,2013-06-10 23:08:00,
2013-06-10 19:23:00,64.6,57.0,30.07,SSW,212,0.0,0.0,77,0.00,,,0.00,weatherlink.com 1.10,2013-06-10 23:23:00,
2013-06-10 19:38:00,64.1,57.0,30.07,SSW,212,0.0,0.0,78,0.00,,,0.00,weatherlink.com 1.10,2013-06-10 23:38:00,
2013-06-10 19:53:00,63.5,57.0,30.06,SSW,212,0.0,0.0,79,0.00,,,0.00,weatherlink.com 1.10,2013-06-10 23:53:00,
2013-06-10 20:08:00,63.0,57.0,30.06,SSW,212,0.0,0.0,80,0.00,,,0.00,weatherlink.com 1.10,2013-06-11 00:08:00,
2013-06-10 20:23:00,62.7,57.0,30.06,SSW,212,0.0,0.0,81,0.00,,,0.00,weatherlink.com 1.10,2013-06-11 00:23:00,
2013-06-10 20:37:00,62.4,57.0,30.05,SSW,212,0.0,0.0,81,0.00,,,0.00,weatherlink.com 1.10,2013-06-11 00:37:00,
2013-06-10 20:54:00,62.0,56.0,30.05,SSW,212,0.0,0.0,81,0.00,,,0.00,weatherlink.com 1.10,2013-06-11 00:54:00,
2013-06-10 21:08:00,61.6,56.0,30.05,SSW,212,0.0,0.0,82,0.00,,,0.00,weatherlink.com 1.10,2013-06-11 01:08:00,
2013-06-10 21:24:00,61.4,56.0,30.05,SSW,212,0.0,0.0,82,0.00,,,0.00,weatherlink.com 1.10,2013-06-11 01:24:00,
2013-06-10 21:38:00,61.1,56.0,30.06,SSW,212,0.0,0.0,82,0.00,,,0.00,weatherlink.com 1.10,2013-06-11 01:38:00,
2013-06-10 21:54:00,60.9,53.0,30.06,SW,223,0.0,4.0,76,0.00,,,0.00,weatherlink.com 1.10,2013-06-11 01:54:00,
2013-06-10 22:08:00,60.8,53.0,30.05,SSW,201,0.0,3.0,76,0.00,,,0.00,weatherlink.com 1.10,2013-06-11 02:08:00,
2013-06-10 22:24:00,60.3,54.0,30.05,SW,215,0.0,0.0,80,0.00,,,0.00,weatherlink.com 1.10,2013-06-11 02:24:00,
2013-06-10 22:39:00,60.0,54.0,30.04,SW,215,0.0,0.0,80,0.00,,,0.00,weatherlink.com 1.10,2013-06-11 02:39:00,
2013-06-10 22:54:00,59.7,54.0,30.04,SW,215,0.0,0.0,81,0.00,,,0.00,weatherlink.com 1.10,2013-06-11 02:54:00,
2013-06-10 23:09:00,59.5,54.0,30.03,SW,215,0.0,0.0,83,0.00,,,0.00,weatherlink.com 1.10,2013-06-11 03:09:00,
2013-06-10 23:24:00,59.4,54.0,30.03,SW,215,0.0,0.0,82,0.00,,,0.00,weatherlink.com 1.10,2013-06-11 03:24:00,
2013-06-10 23:40:00,59.2,54.0,30.02,SW,215,0.0,0.0,82,0.00,,,0.00,weatherlink.com 1.10,2013-06-11 03:40:00,
2013-06-10 23:55:00,58.9,53.0,30.02,South,191,0.0,0.0,82,0.00,,,0.00,weatherlink.com 1.10,2013-06-11 03:55:00,